Main page
METAR-TAF:

METAR-TAF

Airports :

Dharamsala, India

Gaggal Airport

latitude: 32-09-54N, longitude: 76-15-48E, elevation: 770 m

Current weather observation

The report was made 8 hours and 36 minutes ago, at 12:00 UTC
Wind 4 kt from the North
Temperature 23°C
Humidity 50%
Pressure 1012 hPa
Visibility: 6000 m
Scattered clouds at a height of 3500 ft
Few clouds at a height of 4000 ft, Cumulonimbus.
thunderstorm, (light

METAR: VIGG 301200Z 01004KT 6000 -TS SCT035 FEW040CB 23/12 Q1012

Time: 02:06 (20:36 UTC)


TAF: missing

Weather observations and forecasts of more than 4000 airports (METAR and TAF reports).

The available stations are represented by yellow and red dots on the map.

Hover mouse over dot to see the name of the station.

Then click to see weather observations and forecasts.

To change the map : click on the green buttons with a black cross to zoom in, on the green button with a dash to zoom out, or on the green arrows for adjacent maps.


METAR-TAF: